createdAt,value
2023-04-27T00:02:41.123Z,86.04
2023-04-27T00:12:44.349Z,85.01
2023-04-27T00:22:41.358Z,85.79
2023-04-27T00:32:41.710Z,86.55
2023-04-27T00:42:41.692Z,84.50
2023-04-27T00:52:42.175Z,85.42
2023-04-27T01:02:42.304Z,83.03
2023-04-27T01:12:42.402Z,84.50
2023-04-27T01:22:42.595Z,84.70
2023-04-27T01:32:42.899Z,85.42
2023-04-27T01:42:42.882Z,84.60
2023-04-27T01:52:43.139Z,85.22
2023-04-27T02:02:43.447Z,87.06
2023-04-27T02:12:43.506Z,88.70
2023-04-27T02:22:43.723Z,89.97
2023-04-27T02:32:44.101Z,88.17
2023-04-27T02:42:44.091Z,87.65
2023-04-27T02:52:44.344Z,87.04
2023-04-27T03:02:44.735Z,89.03
2023-04-27T03:12:44.823Z,92.66
2023-04-27T03:22:44.823Z,90.67
2023-04-27T03:32:47.500Z,91.28
2023-04-27T03:42:45.113Z,91.22
2023-04-27T03:52:48.432Z,90.56
2023-04-27T04:02:45.639Z,91.38
2023-04-27T04:12:45.734Z,91.08
2023-04-27T04:22:45.979Z,91.49
2023-04-27T04:32:49.411Z,91.18
2023-04-27T04:42:46.370Z,90.05
2023-04-27T04:52:46.577Z,90.05
2023-04-27T05:02:46.896Z,90.36
2023-04-27T05:12:47.258Z,90.97
2023-04-27T05:22:47.065Z,91.08
2023-04-27T05:32:47.342Z,90.73
2023-04-27T05:42:47.524Z,91.14
2023-04-27T05:52:49.732Z,90.83
2023-04-27T06:02:48.020Z,91.14
2023-04-27T06:12:48.067Z,90.17
2023-04-27T06:22:48.264Z,89.15
2023-04-27T06:32:48.803Z,89.92
2023-04-27T06:42:48.554Z,80.97
2023-04-27T06:52:48.818Z,81.91
2023-04-27T07:02:49.051Z,85.20
2023-04-27T07:12:49.283Z,85.32
2023-04-27T07:22:49.474Z,83.28
2023-04-27T07:32:49.751Z,83.54
2023-04-27T07:42:49.937Z,84.63
2023-04-27T07:52:53.296Z,85.35
2023-04-27T08:02:50.530Z,74.65
2023-04-27T08:12:50.483Z,76.66
2023-04-27T08:22:50.680Z,77.82
2023-04-27T08:32:50.993Z,77.33
2023-04-27T08:42:50.964Z,69.84
2023-04-27T08:52:51.225Z,66.88
2023-04-27T09:02:51.619Z,67.52
2023-04-27T09:12:51.689Z,65.85
2023-04-27T09:22:51.695Z,74.17
2023-04-27T09:32:53.949Z,66.65
2023-04-27T09:42:52.119Z,66.99
2023-04-27T09:52:52.442Z,68.97
2023-04-27T10:02:53.854Z,70.93
2023-04-27T10:12:52.617Z,72.04
2023-04-27T10:22:52.804Z,65.91
2023-04-27T10:32:53.399Z,68.57
2023-04-27T10:42:53.222Z,64.53
2023-04-27T10:52:53.454Z,61.56
2023-04-27T11:02:53.926Z,61.63
2023-04-27T11:12:53.832Z,60.64
2023-04-27T11:22:54.045Z,62.52
2023-04-27T11:32:54.326Z,65.45
2023-04-27T11:42:54.516Z,62.49
2023-04-27T11:52:54.868Z,62.85
2023-04-27T12:02:55.094Z,60.83
2023-04-27T12:12:55.045Z,58.80
2023-04-27T12:22:55.053Z,57.67
2023-04-27T12:32:55.343Z,53.22
2023-04-27T12:42:55.513Z,53.57
2023-04-27T12:52:55.768Z,53.62
2023-04-27T13:02:56.062Z,50.74
2023-04-27T13:12:56.134Z,53.62
2023-04-27T13:22:56.129Z,51.59
2023-04-27T13:33:07.187Z,50.34
2023-04-27T13:42:57.483Z,50.07
2023-04-27T13:52:56.788Z,50.94
2023-04-27T14:02:57.025Z,50.07
2023-04-27T14:12:56.951Z,50.26
2023-04-27T14:22:58.505Z,47.96
2023-04-27T14:32:57.133Z,48.54
2023-04-27T14:42:57.207Z,48.14
2023-04-27T14:52:58.535Z,49.04
2023-04-27T15:02:57.639Z,46.62
2023-04-27T15:12:57.782Z,48.14
2023-04-27T15:22:57.797Z,47.74
2023-04-27T15:32:58.134Z,48.19
2023-04-27T15:42:58.092Z,50.19
2023-04-27T15:52:58.296Z,50.04
2023-04-27T16:02:58.661Z,50.04
2023-04-27T16:12:58.652Z,51.61
2023-04-27T16:22:58.922Z,52.42
2023-04-27T16:32:59.168Z,56.64
2023-04-27T16:42:59.158Z,54.21
2023-04-27T16:53:01.486Z,57.98
2023-04-27T17:02:59.610Z,58.92
2023-04-27T17:13:02.843Z,58.52
2023-04-27T17:22:59.854Z,56.43
2023-04-27T17:33:00.176Z,60.49
2023-04-27T17:43:00.354Z,60.72
2023-04-27T17:53:00.527Z,62.70
2023-04-27T18:03:00.737Z,62.93
2023-04-27T18:13:00.767Z,63.57
2023-04-27T18:23:00.984Z,63.63
2023-04-27T18:33:01.016Z,62.82
2023-04-27T18:43:00.984Z,60.82
2023-04-27T18:53:01.249Z,62.54
2023-04-27T19:03:01.658Z,63.35
2023-04-27T19:13:01.579Z,64.36
2023-04-27T19:23:01.897Z,65.27
2023-04-27T19:33:01.935Z,65.48
2023-04-27T19:43:01.902Z,64.13
2023-04-27T19:53:02.402Z,63.52
2023-04-27T20:03:02.415Z,63.39
2023-04-27T20:13:02.591Z,63.62
2023-04-27T20:23:02.592Z,63.92
2023-04-27T20:33:02.971Z,63.95
2023-04-27T20:43:02.976Z,64.90
2023-04-27T20:53:03.228Z,65.51
2023-04-27T21:03:03.595Z,67.57
2023-04-27T21:13:03.737Z,69.06
2023-04-27T21:23:03.723Z,70.68
2023-04-27T21:33:04.062Z,72.38
2023-04-27T21:43:04.072Z,73.54
2023-04-27T21:53:04.336Z,71.67
2023-04-27T22:03:04.606Z,69.93
2023-04-27T22:13:17.557Z,68.88
2023-04-27T22:23:05.792Z,69.84
2023-04-27T22:33:05.133Z,70.34
2023-04-27T22:43:05.167Z,69.32
2023-04-27T22:53:05.498Z,69.23
2023-04-27T23:03:05.640Z,69.02
2023-04-27T23:13:05.752Z,68.27
2023-04-27T23:23:05.808Z,67.87
2023-04-27T23:33:06.163Z,67.13
2023-04-27T23:43:06.185Z,68.07
2023-04-27T23:53:06.451Z,69.02
